QFA1105 YCFS-YSSY
Flight info
| Callsign | QFA1105 |
|---|---|
| Flight time | 0h 51m |
| Altitude | 34000 |
| Route | BANDA J70 IGDAM H652 BOREE |
| Aircraft | B738/M-SDE2E3FGHIRWXY/LB1 |
Departure
| Time | 2026-05-06 12:35 |
|---|---|
| Airport | Coffs Harbour Airport (YCFS) |
Arrival
| Time | 2026-05-06 13:27 |
|---|---|
| Airport | Sydney Kingsford Smith International Airport (YSSY) |
| Time | Latitude | Longitude | Altitude | Speed | Heading |
|---|---|---|---|---|---|
| 2026-05-06 12:04 | -30.32356 | 153.11593 | 26 ft | 0 kts | 339° |
| 2026-05-06 12:29 | -30.32355 | 153.11592 | 26 ft | 1 kts | 339° |
| 2026-05-06 12:29 | -30.32350 | 153.11593 | 29 ft | 0 kts | 9° |
| 2026-05-06 12:29 | -30.32349 | 153.11600 | 28 ft | 1 kts | 79° |
| 2026-05-06 12:29 | -30.32351 | 153.11606 | 28 ft | 3 kts | 108° |
| 2026-05-06 12:30 | -30.32368 | 153.11674 | 29 ft | 11 kts | 106° |
| 2026-05-06 12:30 | -30.32414 | 153.11754 | 26 ft | 14 kts | 132° |
| 2026-05-06 12:30 | -30.32498 | 153.11744 | 27 ft | 14 kts | 222° |
| 2026-05-06 12:30 | -30.32569 | 153.11674 | 27 ft | 14 kts | 219° |
| 2026-05-06 12:31 | -30.32668 | 153.11577 | 27 ft | 23 kts | 221° |
| 2026-05-06 12:31 | -30.32806 | 153.11439 | 30 ft | 29 kts | 220° |
| 2026-05-06 12:31 | -30.32959 | 153.11288 | 26 ft | 28 kts | 222° |
| 2026-05-06 12:31 | -30.33100 | 153.11146 | 28 ft | 26 kts | 220° |
| 2026-05-06 12:32 | -30.33229 | 153.11060 | 25 ft | 16 kts | 161° |
| 2026-05-06 12:32 | -30.33315 | 153.11139 | 29 ft | 16 kts | 160° |
| 2026-05-06 12:32 | -30.33432 | 153.11057 | 25 ft | 26 kts | 220° |
| 2026-05-06 12:32 | -30.33595 | 153.10896 | 22 ft | 35 kts | 220° |
| 2026-05-06 12:33 | -30.33773 | 153.10720 | 20 ft | 30 kts | 221° |
| 2026-05-06 12:33 | -30.33799 | 153.10696 | 21 ft | 0 kts | 197° |
| 2026-05-06 12:33 | -30.33823 | 153.10687 | 22 ft | 5 kts | 218° |
| 2026-05-06 12:33 | -30.33815 | 153.10653 | 21 ft | 5 kts | 339° |
| 2026-05-06 12:34 | -30.33791 | 153.10679 | 21 ft | 6 kts | 72° |
| 2026-05-06 12:34 | -30.33771 | 153.10719 | 20 ft | 6 kts | 47° |
| 2026-05-06 12:34 | -30.33736 | 153.10755 | 21 ft | 13 kts | 40° |
| 2026-05-06 12:34 | -30.33466 | 153.11020 | 22 ft | 88 kts | 40° |
| 2026-05-06 12:35 | -30.32829 | 153.11656 | 29 ft | 150 kts | 40° |
| 2026-05-06 12:35 | -30.31995 | 153.12518 | 561 ft | 162 kts | 41° |
| 2026-05-06 12:35 | -30.31282 | 153.13590 | 1153 ft | 183 kts | 64° |
| 2026-05-06 12:35 | -30.31047 | 153.15115 | 1617 ft | 211 kts | 92° |
| 2026-05-06 12:36 | -30.31597 | 153.16710 | 2240 ft | 229 kts | 125° |
| 2026-05-06 12:36 | -30.32950 | 153.17807 | 2574 ft | 249 kts | 163° |
| 2026-05-06 12:36 | -30.34690 | 153.17834 | 3131 ft | 254 kts | 200° |
| 2026-05-06 12:36 | -30.36175 | 153.16765 | 3697 ft | 257 kts | 227° |
| 2026-05-06 12:37 | -30.37404 | 153.15216 | 4301 ft | 266 kts | 232° |
| 2026-05-06 12:37 | -30.38581 | 153.13570 | 5328 ft | 263 kts | 233° |
| 2026-05-06 12:37 | -30.39741 | 153.11929 | 6315 ft | 264 kts | 233° |
| 2026-05-06 12:37 | -30.40921 | 153.10275 | 7159 ft | 268 kts | 233° |
| 2026-05-06 12:38 | -30.42129 | 153.08598 | 7963 ft | 273 kts | 232° |
| 2026-05-06 12:38 | -30.43365 | 153.06898 | 8799 ft | 278 kts | 232° |
| 2026-05-06 12:38 | -30.44625 | 153.05178 | 9636 ft | 282 kts | 232° |
| 2026-05-06 12:38 | -30.45468 | 153.04031 | 10165 ft | 285 kts | 232° |
| 2026-05-06 12:39 | -30.46804 | 153.02216 | 10529 ft | 307 kts | 232° |
| 2026-05-06 12:39 | -30.48248 | 153.00256 | 10725 ft | 332 kts | 232° |
| 2026-05-06 12:39 | -30.49802 | 152.98152 | 10947 ft | 353 kts | 232° |
| 2026-05-06 12:39 | -30.51424 | 152.95964 | 11503 ft | 361 kts | 232° |
| 2026-05-06 12:40 | -30.53071 | 152.93748 | 12203 ft | 364 kts | 232° |
| 2026-05-06 12:40 | -30.54733 | 152.91512 | 12542 ft | 364 kts | 232° |
| 2026-05-06 12:40 | -30.56379 | 152.89297 | 12583 ft | 364 kts | 232° |
| 2026-05-06 12:40 | -30.58029 | 152.87073 | 12595 ft | 362 kts | 232° |
| 2026-05-06 12:41 | -30.59676 | 152.84850 | 12603 ft | 362 kts | 232° |
| 2026-05-06 12:41 | -30.61325 | 152.82622 | 12669 ft | 366 kts | 233° |
| 2026-05-06 12:41 | -30.62992 | 152.80367 | 13392 ft | 370 kts | 233° |
| 2026-05-06 12:41 | -30.64671 | 152.78097 | 14227 ft | 371 kts | 233° |
| 2026-05-06 12:42 | -30.66336 | 152.75844 | 14976 ft | 373 kts | 233° |
| 2026-05-06 12:42 | -30.68055 | 152.73515 | 15735 ft | 376 kts | 233° |
| 2026-05-06 12:42 | -30.69742 | 152.71229 | 16433 ft | 380 kts | 233° |
| 2026-05-06 12:42 | -30.71472 | 152.68883 | 17143 ft | 384 kts | 233° |
| 2026-05-06 12:43 | -30.73220 | 152.66512 | 17839 ft | 387 kts | 233° |
| 2026-05-06 12:43 | -30.74979 | 152.64123 | 18514 ft | 391 kts | 233° |
| 2026-05-06 12:43 | -30.76749 | 152.61720 | 19106 ft | 394 kts | 233° |
| 2026-05-06 12:43 | -30.78539 | 152.59288 | 19728 ft | 396 kts | 233° |
| 2026-05-06 12:44 | -30.80347 | 152.56869 | 20350 ft | 399 kts | 231° |
| 2026-05-06 12:44 | -30.82292 | 152.54537 | 20947 ft | 403 kts | 230° |
| 2026-05-06 12:44 | -30.84301 | 152.52247 | 21540 ft | 406 kts | 229° |
| 2026-05-06 12:44 | -30.86351 | 152.49948 | 22131 ft | 409 kts | 229° |
| 2026-05-06 12:45 | -30.88409 | 152.47639 | 22688 ft | 412 kts | 229° |
| 2026-05-06 12:45 | -30.90470 | 152.45315 | 23221 ft | 415 kts | 230° |
| 2026-05-06 12:45 | -30.94645 | 152.40569 | 24116 ft | 421 kts | 230° |
| 2026-05-06 12:46 | -30.96737 | 152.38177 | 24594 ft | 422 kts | 230° |
| 2026-05-06 12:46 | -30.98839 | 152.35769 | 25030 ft | 424 kts | 230° |
| 2026-05-06 12:46 | -31.00957 | 152.33342 | 25464 ft | 427 kts | 230° |
| 2026-05-06 12:46 | -31.03049 | 152.30939 | 25877 ft | 429 kts | 230° |
| 2026-05-06 12:47 | -31.05210 | 152.28457 | 26323 ft | 431 kts | 230° |
| 2026-05-06 12:47 | -31.07356 | 152.25990 | 26679 ft | 435 kts | 231° |
| 2026-05-06 12:47 | -31.09483 | 152.23543 | 27054 ft | 437 kts | 231° |
| 2026-05-06 12:47 | -31.11693 | 152.21001 | 27470 ft | 439 kts | 231° |
| 2026-05-06 12:48 | -31.13844 | 152.18525 | 27845 ft | 441 kts | 231° |
| 2026-05-06 12:48 | -31.16037 | 152.15999 | 28220 ft | 444 kts | 231° |
| 2026-05-06 12:48 | -31.18242 | 152.13456 | 28584 ft | 446 kts | 231° |
| 2026-05-06 12:48 | -31.20462 | 152.10895 | 28934 ft | 448 kts | 231° |
| 2026-05-06 12:49 | -31.22673 | 152.08343 | 29355 ft | 449 kts | 231° |
| 2026-05-06 12:49 | -31.24893 | 152.05780 | 29959 ft | 446 kts | 231° |
| 2026-05-06 12:49 | -31.27093 | 152.03240 | 30441 ft | 444 kts | 231° |
| 2026-05-06 12:49 | -31.29294 | 152.00694 | 30834 ft | 443 kts | 231° |
| 2026-05-06 12:50 | -31.31484 | 151.98158 | 31257 ft | 442 kts | 231° |
| 2026-05-06 12:50 | -31.33663 | 151.95632 | 31712 ft | 440 kts | 231° |
| 2026-05-06 12:50 | -31.35837 | 151.93112 | 32186 ft | 437 kts | 231° |
| 2026-05-06 12:50 | -31.37994 | 151.90608 | 32568 ft | 437 kts | 231° |
| 2026-05-06 12:51 | -31.40128 | 151.88130 | 32930 ft | 437 kts | 231° |
| 2026-05-06 12:51 | -31.42333 | 151.85674 | 33306 ft | 440 kts | 227° |
| 2026-05-06 12:51 | -31.44755 | 151.83470 | 33809 ft | 441 kts | 224° |
| 2026-05-06 12:51 | -31.47243 | 151.81347 | 34110 ft | 443 kts | 223° |
| 2026-05-06 12:52 | -31.49755 | 151.79229 | 34110 ft | 447 kts | 223° |
| 2026-05-06 12:52 | -31.54775 | 151.74967 | 34102 ft | 441 kts | 224° |
| 2026-05-06 12:53 | -31.59700 | 151.70720 | 34112 ft | 438 kts | 224° |
| 2026-05-06 12:53 | -31.64588 | 151.66466 | 34141 ft | 439 kts | 224° |
| 2026-05-06 12:54 | -31.69503 | 151.62183 | 34095 ft | 440 kts | 224° |
| 2026-05-06 12:54 | -31.74439 | 151.57881 | 34094 ft | 440 kts | 224° |
| 2026-05-06 12:55 | -31.79363 | 151.53584 | 34110 ft | 440 kts | 224° |
| 2026-05-06 12:55 | -31.84272 | 151.49281 | 34145 ft | 440 kts | 224° |
| 2026-05-06 12:56 | -31.89169 | 151.44969 | 34123 ft | 440 kts | 225° |
| 2026-05-06 12:56 | -31.94082 | 151.40639 | 34110 ft | 440 kts | 225° |
| 2026-05-06 12:57 | -31.98956 | 151.36339 | 34102 ft | 440 kts | 225° |
| 2026-05-06 12:57 | -32.03888 | 151.31984 | 34095 ft | 440 kts | 224° |
| 2026-05-06 12:58 | -32.08753 | 151.27695 | 34107 ft | 440 kts | 225° |
| 2026-05-06 12:58 | -32.13657 | 151.23371 | 34106 ft | 440 kts | 225° |
| 2026-05-06 12:58 | -32.16123 | 151.21192 | 33584 ft | 445 kts | 225° |
| 2026-05-06 12:59 | -32.18573 | 151.19031 | 33446 ft | 432 kts | 225° |
| 2026-05-06 12:59 | -32.23383 | 151.14777 | 33430 ft | 437 kts | 225° |
| 2026-05-06 13:00 | -32.28280 | 151.10428 | 33451 ft | 441 kts | 225° |
| 2026-05-06 13:00 | -32.33183 | 151.06081 | 33170 ft | 441 kts | 225° |
| 2026-05-06 13:00 | -32.35636 | 151.03903 | 32912 ft | 441 kts | 225° |
| 2026-05-06 13:01 | -32.38098 | 151.01713 | 32651 ft | 442 kts | 225° |
| 2026-05-06 13:01 | -32.40554 | 150.99529 | 32311 ft | 441 kts | 225° |
| 2026-05-06 13:01 | -32.43013 | 150.97340 | 31502 ft | 442 kts | 224° |
| 2026-05-06 13:01 | -32.45469 | 150.95154 | 30752 ft | 443 kts | 224° |
| 2026-05-06 13:02 | -32.48101 | 150.93175 | 29884 ft | 456 kts | 211° |
| 2026-05-06 13:02 | -32.51166 | 150.92041 | 28967 ft | 472 kts | 196° |
| 2026-05-06 13:02 | -32.54471 | 150.91829 | 28383 ft | 478 kts | 181° |
| 2026-05-06 13:02 | -32.57760 | 150.92376 | 27777 ft | 477 kts | 176° |
| 2026-05-06 13:03 | -32.60987 | 150.93041 | 27142 ft | 473 kts | 175° |
| 2026-05-06 13:03 | -32.64215 | 150.93710 | 26525 ft | 469 kts | 176° |
| 2026-05-06 13:03 | -32.67421 | 150.94340 | 25950 ft | 464 kts | 176° |
| 2026-05-06 13:03 | -32.70582 | 150.94927 | 25352 ft | 459 kts | 176° |
| 2026-05-06 13:04 | -32.73742 | 150.95495 | 24757 ft | 456 kts | 176° |
| 2026-05-06 13:04 | -32.76870 | 150.96055 | 24141 ft | 453 kts | 176° |
| 2026-05-06 13:04 | -32.79977 | 150.96612 | 23511 ft | 450 kts | 176° |
| 2026-05-06 13:04 | -32.82928 | 150.97138 | 22872 ft | 446 kts | 176° |
| 2026-05-06 13:05 | -32.85996 | 150.97681 | 22230 ft | 441 kts | 176° |
| 2026-05-06 13:05 | -32.89022 | 150.98219 | 21658 ft | 435 kts | 176° |
| 2026-05-06 13:05 | -32.92000 | 150.98748 | 21084 ft | 431 kts | 175° |
| 2026-05-06 13:05 | -32.94949 | 150.99271 | 20495 ft | 427 kts | 175° |
| 2026-05-06 13:06 | -32.97874 | 150.99791 | 19911 ft | 423 kts | 175° |
| 2026-05-06 13:06 | -33.00777 | 151.00307 | 19346 ft | 419 kts | 175° |
| 2026-05-06 13:06 | -33.03652 | 151.00819 | 18780 ft | 416 kts | 174° |
| 2026-05-06 13:06 | -33.06507 | 151.01328 | 18198 ft | 412 kts | 174° |
| 2026-05-06 13:07 | -33.09332 | 151.01832 | 17563 ft | 409 kts | 174° |
| 2026-05-06 13:07 | -33.12134 | 151.02332 | 16974 ft | 405 kts | 174° |
| 2026-05-06 13:07 | -33.14907 | 151.02827 | 16407 ft | 400 kts | 174° |
| 2026-05-06 13:07 | -33.17647 | 151.03317 | 15849 ft | 397 kts | 174° |
| 2026-05-06 13:08 | -33.20365 | 151.03803 | 15309 ft | 393 kts | 174° |
| 2026-05-06 13:08 | -33.23058 | 151.04285 | 14768 ft | 390 kts | 174° |
| 2026-05-06 13:08 | -33.25725 | 151.04775 | 14292 ft | 385 kts | 173° |
| 2026-05-06 13:08 | -33.28365 | 151.05282 | 13763 ft | 383 kts | 173° |
| 2026-05-06 13:09 | -33.30980 | 151.05787 | 13175 ft | 380 kts | 173° |
| 2026-05-06 13:09 | -33.33585 | 151.06289 | 12600 ft | 378 kts | 173° |
| 2026-05-06 13:09 | -33.36175 | 151.06786 | 12036 ft | 375 kts | 173° |
| 2026-05-06 13:09 | -33.38741 | 151.07278 | 11494 ft | 372 kts | 173° |
| 2026-05-06 13:10 | -33.41289 | 151.07766 | 10970 ft | 370 kts | 173° |
| 2026-05-06 13:10 | -33.43803 | 151.08250 | 10762 ft | 358 kts | 173° |
| 2026-05-06 13:10 | -33.46214 | 151.08715 | 10584 ft | 347 kts | 174° |
| 2026-05-06 13:10 | -33.48566 | 151.09168 | 10399 ft | 336 kts | 174° |
| 2026-05-06 13:11 | -33.50841 | 151.09606 | 10251 ft | 326 kts | 174° |
| 2026-05-06 13:11 | -33.53005 | 151.10022 | 10115 ft | 317 kts | 174° |
| 2026-05-06 13:11 | -33.55166 | 151.10437 | 9912 ft | 310 kts | 174° |
| 2026-05-06 13:11 | -33.57280 | 151.10843 | 9574 ft | 306 kts | 174° |
| 2026-05-06 13:12 | -33.59350 | 151.11243 | 9240 ft | 296 kts | 173° |
| 2026-05-06 13:12 | -33.61278 | 151.12047 | 8958 ft | 295 kts | 151° |
| 2026-05-06 13:12 | -33.62977 | 151.13400 | 8720 ft | 294 kts | 148° |
| 2026-05-06 13:12 | -33.64680 | 151.14800 | 8485 ft | 298 kts | 147° |
| 2026-05-06 13:13 | -33.66404 | 151.16199 | 8237 ft | 299 kts | 148° |
| 2026-05-06 13:13 | -33.68138 | 151.17584 | 7998 ft | 298 kts | 148° |
| 2026-05-06 13:13 | -33.69870 | 151.18951 | 7746 ft | 299 kts | 149° |
| 2026-05-06 13:13 | -33.71639 | 151.20336 | 7491 ft | 303 kts | 149° |
| 2026-05-06 13:14 | -33.73393 | 151.21705 | 7255 ft | 298 kts | 149° |
| 2026-05-06 13:14 | -33.75117 | 151.23047 | 6986 ft | 293 kts | 149° |
| 2026-05-06 13:14 | -33.76815 | 151.24368 | 6735 ft | 290 kts | 149° |
| 2026-05-06 13:14 | -33.78504 | 151.25681 | 6502 ft | 287 kts | 149° |
| 2026-05-06 13:15 | -33.80163 | 151.26971 | 6256 ft | 288 kts | 149° |
| 2026-05-06 13:15 | -33.81843 | 151.28276 | 6036 ft | 288 kts | 149° |
| 2026-05-06 13:15 | -33.83635 | 151.29322 | 5981 ft | 285 kts | 168° |
| 2026-05-06 13:15 | -33.85569 | 151.29803 | 5985 ft | 283 kts | 172° |
| 2026-05-06 13:16 | -33.87502 | 151.30259 | 5980 ft | 283 kts | 172° |
| 2026-05-06 13:16 | -33.89431 | 151.30735 | 5974 ft | 283 kts | 171° |
| 2026-05-06 13:16 | -33.91356 | 151.31225 | 5972 ft | 283 kts | 171° |
| 2026-05-06 13:16 | -33.93289 | 151.31727 | 5931 ft | 285 kts | 171° |
| 2026-05-06 13:17 | -33.95232 | 151.32233 | 5664 ft | 287 kts | 171° |
| 2026-05-06 13:17 | -33.97171 | 151.32741 | 5360 ft | 281 kts | 170° |
| 2026-05-06 13:17 | -33.99054 | 151.33235 | 5073 ft | 273 kts | 170° |
| 2026-05-06 13:17 | -34.00890 | 151.33716 | 4793 ft | 267 kts | 170° |
| 2026-05-06 13:18 | -34.02709 | 151.34193 | 4514 ft | 267 kts | 171° |
| 2026-05-06 13:18 | -34.04530 | 151.34669 | 4236 ft | 268 kts | 171° |
| 2026-05-06 13:18 | -34.06358 | 151.35148 | 3964 ft | 268 kts | 171° |
| 2026-05-06 13:18 | -34.08182 | 151.35626 | 3702 ft | 269 kts | 171° |
| 2026-05-06 13:19 | -34.10008 | 151.36105 | 3410 ft | 268 kts | 171° |
| 2026-05-06 13:19 | -34.11807 | 151.36577 | 3134 ft | 261 kts | 171° |
| 2026-05-06 13:19 | -34.13543 | 151.37034 | 2989 ft | 248 kts | 171° |
| 2026-05-06 13:19 | -34.15205 | 151.37450 | 2971 ft | 240 kts | 177° |
| 2026-05-06 13:20 | -34.16284 | 151.37400 | 2982 ft | 231 kts | 200° |
| 2026-05-06 13:20 | -34.17654 | 151.36470 | 2994 ft | 226 kts | 232° |
| 2026-05-06 13:20 | -34.18374 | 151.34838 | 2994 ft | 220 kts | 259° |
| 2026-05-06 13:20 | -34.18715 | 151.33051 | 2992 ft | 218 kts | 262° |
| 2026-05-06 13:21 | -34.19005 | 151.31240 | 2976 ft | 221 kts | 262° |
| 2026-05-06 13:21 | -34.19040 | 151.29407 | 2971 ft | 218 kts | 287° |
| 2026-05-06 13:21 | -34.18271 | 151.27878 | 2984 ft | 216 kts | 317° |
| 2026-05-06 13:21 | -34.17088 | 151.26746 | 2979 ft | 217 kts | 322° |
| 2026-05-06 13:22 | -34.15875 | 151.25660 | 2980 ft | 217 kts | 322° |
| 2026-05-06 13:22 | -34.14669 | 151.24588 | 2976 ft | 211 kts | 322° |
| 2026-05-06 13:22 | -34.13510 | 151.23575 | 2971 ft | 204 kts | 323° |
| 2026-05-06 13:22 | -34.12360 | 151.22572 | 2967 ft | 202 kts | 324° |
| 2026-05-06 13:23 | -34.11074 | 151.21887 | 2906 ft | 204 kts | 344° |
| 2026-05-06 13:23 | -34.09704 | 151.21554 | 2670 ft | 197 kts | 344° |
| 2026-05-06 13:23 | -34.08418 | 151.21200 | 2426 ft | 190 kts | 344° |
| 2026-05-06 13:23 | -34.07124 | 151.20855 | 2173 ft | 184 kts | 345° |
| 2026-05-06 13:24 | -34.05908 | 151.20538 | 1937 ft | 179 kts | 345° |
| 2026-05-06 13:24 | -34.04734 | 151.20233 | 1703 ft | 165 kts | 345° |
| 2026-05-06 13:24 | -34.03654 | 151.19952 | 1483 ft | 152 kts | 345° |
| 2026-05-06 13:24 | -34.02677 | 151.19698 | 1291 ft | 138 kts | 344° |
| 2026-05-06 13:25 | -34.01764 | 151.19459 | 1121 ft | 135 kts | 345° |
| 2026-05-06 13:25 | -34.00839 | 151.19217 | 946 ft | 135 kts | 345° |
| 2026-05-06 13:25 | -33.99931 | 151.18981 | 768 ft | 130 kts | 346° |
| 2026-05-06 13:25 | -33.99043 | 151.18749 | 594 ft | 131 kts | 347° |
| 2026-05-06 13:26 | -33.98133 | 151.18515 | 410 ft | 134 kts | 347° |
| 2026-05-06 13:26 | -33.97231 | 151.18276 | 226 ft | 130 kts | 347° |
| 2026-05-06 13:26 | -33.96357 | 151.18047 | 58 ft | 130 kts | 348° |
| 2026-05-06 13:26 | -33.95569 | 151.17843 | 28 ft | 89 kts | 348° |
| 2026-05-06 13:27 | -33.95125 | 151.17726 | 27 ft | 55 kts | 348° |
| 2026-05-06 13:27 | -33.94852 | 151.17658 | 28 ft | 30 kts | 351° |
| 2026-05-06 13:27 | -33.94650 | 151.17646 | 28 ft | 28 kts | 5° |
| 2026-05-06 13:27 | -33.94494 | 151.17690 | 29 ft | 13 kts | 18° |
| 2026-05-06 13:28 | -33.94410 | 151.17721 | 29 ft | 12 kts | 17° |
| 2026-05-06 13:28 | -33.94327 | 151.17732 | 29 ft | 12 kts | 348° |
| 2026-05-06 13:28 | -33.94246 | 151.17707 | 28 ft | 13 kts | 345° |
| 2026-05-06 13:28 | -33.94149 | 151.17677 | 28 ft | 16 kts | 345° |
| 2026-05-06 13:29 | -33.94036 | 151.17645 | 27 ft | 17 kts | 348° |
| 2026-05-06 13:29 | -33.93940 | 151.17620 | 28 ft | 12 kts | 348° |
| 2026-05-06 13:29 | -33.93878 | 151.17603 | 28 ft | 9 kts | 346° |
| 2026-05-06 13:29 | -33.93821 | 151.17586 | 28 ft | 8 kts | 349° |
| 2026-05-06 13:30 | -33.93766 | 151.17575 | 28 ft | 8 kts | 350° |
| 2026-05-06 13:30 | -33.93722 | 151.17565 | 28 ft | 1 kts | 348° |
| 2026-05-06 13:30 | -33.93714 | 151.17563 | 28 ft | 1 kts | 348° |
| 2026-05-06 13:30 | -33.93704 | 151.17560 | 28 ft | 2 kts | 348° |
| 2026-05-06 13:31 | -33.93693 | 151.17558 | 28 ft | 2 kts | 355° |
| 2026-05-06 13:31 | -33.93668 | 151.17566 | 28 ft | 8 kts | 28° |
| 2026-05-06 13:31 | -33.93618 | 151.17615 | 29 ft | 10 kts | 30° |
| 2026-05-06 13:31 | -33.93553 | 151.17610 | 29 ft | 10 kts | 341° |
| 2026-05-06 13:32 | -33.93491 | 151.17584 | 29 ft | 9 kts | 349° |
| 2026-05-06 13:32 | -33.93427 | 151.17588 | 29 ft | 9 kts | 6° |
| 2026-05-06 13:32 | -33.93365 | 151.17587 | 29 ft | 9 kts | 353° |
| 2026-05-06 13:32 | -33.93306 | 151.17572 | 29 ft | 9 kts | 347° |
| 2026-05-06 13:33 | -33.93248 | 151.17557 | 29 ft | 8 kts | 348° |
| 2026-05-06 13:33 | -33.93206 | 151.17563 | 29 ft | 2 kts | 65° |
| 2026-05-06 13:33 | -33.93201 | 151.17583 | 29 ft | 3 kts | 77° |
| 2026-05-06 13:33 | -33.93199 | 151.17606 | 29 ft | 3 kts | 85° |
| 2026-05-06 13:34 | -33.93198 | 151.17627 | 29 ft | 2 kts | 85° |
| 2026-05-06 13:34 | -33.93197 | 151.17635 | 29 ft | 0 kts | 85° |